Terminal Aerodrome Forecast
Issued by NWS Green Bay, WI

Home | Current Version | Previous Version | Graphics & Text | Print | Product List | Glossary On
Versions: 1 2 3 4 5 6 7 8 9 10 11 12 13 14 15 16 17 18 19 20 21 22 23 24 25 26 27 28 29 30 31 32 33
000
FTUS43 KGRB 162300
TAFGRB
TAF
KGRB 162326Z 1700/1724 14014G24KT P6SM BKN100
     FM170400 11013G20KT P6SM SCT045 OVC080 WS016/17040KT
     FM170800 10012G18KT P6SM -RASN SCT020 OVC040 WS015/17045KT
      TEMPO 1710/1714 3SM -SN BR BKN013
     FM171400 17013G20KT 4SM -RA BR SCT009 BKN015
      TEMPO 1714/1718 2SM -RASN
     FM172000 23010G18KT P6SM BKN025
     FM172300 28009KT P6SM BKN035=

USA.gov is the U.S. government's official web portal to all federal, state and local government web resources and services.